Terminal Aerodrome Forecast
Issued by NWS Twin Cities, MN

Home | Current Version | Previous Version | Graphics & Text | Print | Product List | Glossary On
Versions: 1 2 3 4 5 6 7 8 9 10 11 12 13 14 15 16
000
FTUS43 KMPX 042320
TAFEAU
TAF
KEAU 042320Z 0500/0524 19006KT 6SM HZ SCT050 SCT250
      TEMPO 0500/0504 5SM HZ
     FM051400 17009KT P6SM FEW250
     FM051600 18014G21KT P6SM SCT250=

USA.gov is the U.S. government's official web portal to all federal, state and local government web resources and services.